Time;durP1;ratioP1;P1;durP2;ratioP2;P2;SDS_P1;SDS_P2;PMS_P1;PMS_P2;Temp;Humidity;BMP_temperature;BMP_pressure;BME280_temperature;BME280_humidity;BME280_pressure;Samples;Min_cycle;Max_cycle;Signal;HPM_P1;HPM_P2
2023/05/11 00:00:35;;;;;;;22.00;13.20;;;;;;;;;;107691;1251;22515;-78
2023/05/11 00:03:12;;;;;;;18.30;11.00;;;;;;;;;;107700;1250;22995;-79
2023/05/11 00:05:38;;;;;;;19.20;12.90;;;;;;;;;;107898;1247;22972;-77
2023/05/11 00:08:04;;;;;;;16.80;10.70;;;;;;;;;;107874;1247;22533;-77
2023/05/11 00:10:31;;;;;;;16.40;10.40;;;;;;;;;;107862;1247;25408;-79
2023/05/11 00:12:57;;;;;;;27.90;13.90;;;;;;;;;;107844;1250;25306;-79
2023/05/11 00:15:24;;;;;;;22.40;11.40;;;;;;;;;;107878;1247;22612;-77
2023/05/11 00:17:50;;;;;;;19.00;12.50;;;;;;;;;;107831;1253;22510;-79
2023/05/11 00:20:16;;;;;;;22.40;13.50;;;;;;;;;;107870;1247;25446;-79
2023/05/11 00:22:43;;;;;;;23.00;13.90;;;;;;;;;;107897;1248;25424;-77
2023/05/11 00:25:09;;;;;;;19.90;11.00;;;;;;;;;;107913;1247;26346;-76
2023/05/11 00:27:35;;;;;;;20.40;12.30;;;;;;;;;;107885;1248;25293;-78
2023/05/11 00:30:02;;;;;;;21.70;12.60;;;;;;;;;;107778;1250;22550;-77
2023/05/11 00:32:28;;;;;;;25.50;15.30;;;;;;;;;;107737;1253;25377;-79
2023/05/11 00:34:55;;;;;;;27.90;18.10;;;;;;;;;;107746;1251;22525;-78
2023/05/11 00:37:21;;;;;;;24.30;18.30;;;;;;;;;;107750;1250;22528;-77
2023/05/11 00:39:47;;;;;;;26.50;18.10;;;;;;;;;;109204;1247;22166;-78
2023/05/11 00:42:14;;;;;;;24.00;16.00;;;;;;;;;;111020;1247;22908;-77
2023/05/11 00:44:40;;;;;;;27.10;20.80;;;;;;;;;;111029;1247;22322;-78
2023/05/11 00:47:06;;;;;;;25.50;16.30;;;;;;;;;;110955;1247;22512;-76
2023/05/11 00:49:33;;;;;;;22.60;15.50;;;;;;;;;;111032;1247;22329;-77
2023/05/11 00:52:01;;;;;;;20.00;13.30;;;;;;;;;;110992;1247;22281;-76
2023/05/11 00:54:28;;;;;;;20.30;11.60;;;;;;;;;;111003;1247;22086;-78
2023/05/11 00:56:54;;;;;;;20.10;11.80;;;;;;;;;;110973;1250;22446;-78
2023/05/11 00:59:21;;;;;;;17.80;12.20;;;;;;;;;;110934;1249;22708;-78
2023/05/11 01:01:47;;;;;;;21.50;12.70;;;;;;;;;;110910;1249;22334;-78
2023/05/11 01:04:13;;;;;;;23.70;13.60;;;;;;;;;;110897;1250;22488;-77
2023/05/11 01:06:54;;;;;;;23.00;15.30;;;;;;;;;;110933;1250;22366;-77
2023/05/11 01:09:21;;;;;;;22.80;15.40;;;;;;;;;;110746;1249;22335;-78
2023/05/11 01:11:52;;;;;;;23.80;15.40;;;;;;;;;;109955;1250;22545;-76
2023/05/11 01:14:20;;;;;;;17.60;11.00;;;;;;;;;;107684;1251;22528;-78
2023/05/11 01:16:46;;;;;;;23.50;15.20;;;;;;;;;;107727;1250;22541;-78
2023/05/11 01:19:39;;;;;;;16.70;10.30;;;;;;;;;;107738;1250;22585;-77
2023/05/11 01:22:38;;;;;;;14.40;10.10;;;;;;;;;;107538;1251;22813;-79
2023/05/11 01:25:04;;;;;;;;;;;;;;;;;;107578;1250;25194;-77
2023/05/11 01:27:35;;;;;;;22.40;10.90;;;;;;;;;;107769;1250;22514;-76
2023/05/11 01:30:14;;;;;;;24.70;14.30;;;;;;;;;;107680;1253;25290;-78
2023/05/11 01:32:40;;;;;;;21.70;12.60;;;;;;;;;;107737;1251;22631;-79
2023/05/11 01:35:10;;;;;;;24.30;13.60;;;;;;;;;;107740;1250;25493;-77
2023/05/11 01:37:36;;;;;;;24.10;18.80;;;;;;;;;;107692;1250;58533;-76
2023/05/11 01:40:09;;;;;;;27.90;20.70;;;;;;;;;;107786;1250;25275;-78
2023/05/11 01:42:37;;;;;;;22.50;18.20;;;;;;;;;;107744;1249;22596;-77
2023/05/11 01:45:04;;;;;;;16.20;10.80;;;;;;;;;;107709;1250;22514;-78
2023/05/11 01:47:30;;;;;;;20.90;12.90;;;;;;;;;;107746;1251;25261;-78
2023/05/11 01:49:56;;;;;;;16.50;10.40;;;;;;;;;;107749;1251;22544;-79
2023/05/11 01:52:24;;;;;;;18.20;11.80;;;;;;;;;;107644;1251;24359;-77
2023/05/11 01:54:51;;;;;;;17.90;11.00;;;;;;;;;;107667;1251;22528;-79
2023/05/11 01:57:17;;;;;;;17.10;10.50;;;;;;;;;;107747;1252;22567;-76
2023/05/11 01:59:44;;;;;;;21.80;11.00;;;;;;;;;;107593;1251;141173;-78
2023/05/11 02:02:11;;;;;;;19.00;10.90;;;;;;;;;;107809;1248;22858;-77
2023/05/11 02:04:37;;;;;;;24.40;12.60;;;;;;;;;;107903;1248;25302;-78
2023/05/11 02:07:03;;;;;;;19.90;12.30;;;;;;;;;;107865;1248;23773;-77
2023/05/11 02:09:30;;;;;;;23.10;14.80;;;;;;;;;;107865;1247;22515;-76
2023/05/11 02:11:56;;;;;;;33.40;16.80;;;;;;;;;;107912;1248;22527;-76
2023/05/11 02:14:23;;;;;;;28.70;25.60;;;;;;;;;;107854;1247;25486;-76
2023/05/11 02:16:49;;;;;;;32.40;19.00;;;;;;;;;;107720;1250;22517;-77
2023/05/11 02:19:16;;;;;;;21.70;16.00;;;;;;;;;;107725;1248;24240;-77
2023/05/11 02:21:42;;;;;;;21.50;12.70;;;;;;;;;;107646;1248;61160;-76
2023/05/11 02:24:08;;;;;;;19.80;12.80;;;;;;;;;;107673;1254;22534;-78
2023/05/11 02:26:35;;;;;;;20.10;13.30;;;;;;;;;;109884;1247;22404;-78
2023/05/11 02:29:01;;;;;;;15.70;10.50;;;;;;;;;;110948;1250;22370;-79
2023/05/11 02:31:28;;;;;;;16.30;10.70;;;;;;;;;;110728;1249;22093;-77
2023/05/11 02:33:55;;;;;;;20.50;12.20;;;;;;;;;;108192;1251;25496;-77
2023/05/11 02:36:22;;;;;;;20.00;13.20;;;;;;;;;;107640;1250;22535;-77
2023/05/11 02:38:49;;;;;;;21.70;13.30;;;;;;;;;;107741;1248;22528;-77
2023/05/11 02:41:17;;;;;;;19.30;12.80;;;;;;;;;;107876;1252;22676;-78
2023/05/11 02:43:44;;;;;;;19.90;13.60;;;;;;;;;;107867;1247;22569;-78
2023/05/11 02:46:13;;;;;;;16.10;10.50;;;;;;;;;;107878;1247;22569;-77
2023/05/11 02:48:41;;;;;;;17.60;11.40;;;;;;;;;;107751;1253;25496;-78
2023/05/11 02:51:09;;;;;;;23.40;15.70;;;;;;;;;;107678;1248;24200;-80
2023/05/11 02:53:35;;;;;;;18.70;13.10;;;;;;;;;;110475;1247;22207;-77
2023/05/11 02:56:01;;;;;;;19.10;11.70;;;;;;;;;;110961;1248;23071;-78
2023/05/11 02:58:28;;;;;;;17.90;12.00;;;;;;;;;;110895;1250;22854;-78
2023/05/11 03:00:55;;;;;;;15.40;10.20;;;;;;;;;;110960;1250;22238;-77
2023/05/11 03:03:21;;;;;;;17.60;10.40;;;;;;;;;;110832;1249;58518;-77
2023/05/11 03:05:47;;;;;;;16.80;10.30;;;;;;;;;;110902;1250;22167;-77
2023/05/11 03:08:14;;;;;;;18.30;10.90;;;;;;;;;;109231;1250;22640;-78
2023/05/11 03:10:40;;;;;;;20.30;12.70;;;;;;;;;;107708;1250;22514;-76
2023/05/11 03:13:06;;;;;;;16.00;10.30;;;;;;;;;;107699;1253;23231;-76
2023/05/11 03:15:33;;;;;;;18.20;12.50;;;;;;;;;;107658;1251;22566;-76
2023/05/11 03:17:59;;;;;;;21.40;11.60;;;;;;;;;;107708;1251;22525;-76
2023/05/11 03:20:26;;;;;;;15.20;9.20;;;;;;;;;;107790;1251;25350;-76
2023/05/11 03:22:52;;;;;;;12.10;9.10;;;;;;;;;;107732;1250;24249;-78
2023/05/11 03:25:18;;;;;;;14.00;8.80;;;;;;;;;;107784;1250;25275;-78
2023/05/11 03:27:45;;;;;;;22.90;10.60;;;;;;;;;;107793;1250;22568;-78
2023/05/11 03:30:12;;;;;;;17.60;10.30;;;;;;;;;;107733;1253;22551;-78
2023/05/11 03:32:38;;;;;;;19.40;11.10;;;;;;;;;;107736;1250;24219;-77
2023/05/11 03:35:05;;;;;;;15.30;9.50;;;;;;;;;;107725;1256;25396;-77
2023/05/11 03:37:32;;;;;;;20.60;14.00;;;;;;;;;;109663;1250;24173;-79
2023/05/11 03:39:58;;;;;;;21.10;9.50;;;;;;;;;;107720;1250;22523;-78
2023/05/11 03:42:24;;;;;;;18.70;11.50;;;;;;;;;;107699;1251;22507;-79
2023/05/11 03:44:53;;;;;;;18.20;13.90;;;;;;;;;;107718;1250;22977;-78
2023/05/11 03:47:19;;;;;;;20.00;13.30;;;;;;;;;;107652;1249;23146;-79
2023/05/11 03:49:45;;;;;;;25.20;13.10;;;;;;;;;;107707;1251;22625;-76
2023/05/11 03:52:12;;;;;;;14.10;9.00;;;;;;;;;;107672;1250;24371;-76
2023/05/11 03:54:38;;;;;;;14.90;10.60;;;;;;;;;;107705;1251;22523;-76
2023/05/11 03:57:04;;;;;;;18.70;12.30;;;;;;;;;;107690;1249;26454;-78
2023/05/11 03:59:31;;;;;;;14.60;9.50;;;;;;;;;;107755;1250;24066;-76
2023/05/11 04:01:57;;;;;;;20.00;8.80;;;;;;;;;;107670;1248;22544;-77
2023/05/11 04:04:27;;;;;;;12.20;8.10;;;;;;;;;;107655;1247;22546;-77
2023/05/11 04:06:54;;;;;;;14.60;10.80;;;;;;;;;;107876;1247;22511;-77
2023/05/11 04:09:20;;;;;;;26.40;12.20;;;;;;;;;;107926;1248;24183;-77
2023/05/11 04:11:46;;;;;;;16.00;11.30;;;;;;;;;;108190;1251;22337;-79
2023/05/11 04:14:13;;;;;;;24.30;12.50;;;;;;;;;;109705;1249;22554;-78
2023/05/11 04:16:39;;;;;;;17.60;12.50;;;;;;;;;;107953;1248;26327;-77
2023/05/11 04:19:06;;;;;;;17.80;11.60;;;;;;;;;;107868;1251;22530;-76
2023/05/11 04:21:32;;;;;;;19.10;11.00;;;;;;;;;;107626;1247;22536;-79
2023/05/11 04:23:58;;;;;;;16.40;11.60;;;;;;;;;;107957;1250;25506;-77
2023/05/11 04:26:25;;;;;;;20.00;10.70;;;;;;;;;;107702;1250;25386;-77
2023/05/11 04:28:51;;;;;;;14.60;9.00;;;;;;;;;;107737;1251;22528;-79
2023/05/11 04:31:17;;;;;;;11.70;8.20;;;;;;;;;;107591;1251;22515;-77
2023/05/11 04:33:44;;;;;;;16.10;11.10;;;;;;;;;;107955;1247;24170;-79
2023/05/11 04:36:10;;;;;;;16.30;9.50;;;;;;;;;;107967;1248;25381;-79
2023/05/11 04:38:36;;;;;;;15.50;9.10;;;;;;;;;;107985;1249;22514;-79
2023/05/11 04:41:03;;;;;;;14.20;8.50;;;;;;;;;;107918;1252;22742;-77
2023/05/11 04:43:30;;;;;;;14.00;7.90;;;;;;;;;;107864;1252;22537;-77
2023/05/11 04:45:58;;;;;;;14.00;8.50;;;;;;;;;;108084;1250;22612;-79
2023/05/11 04:48:25;;;;;;;18.30;9.30;;;;;;;;;;108194;1250;25306;-77
2023/05/11 04:50:52;;;;;;;14.20;9.60;;;;;;;;;;108109;1248;22498;-79
2023/05/11 04:53:18;;;;;;;15.10;8.60;;;;;;;;;;108456;1250;25433;-79
2023/05/11 04:55:45;;;;;;;13.40;9.80;;;;;;;;;;108254;1251;59014;-79
2023/05/11 04:58:11;;;;;;;12.70;8.00;;;;;;;;;;108029;1247;22571;-77
2023/05/11 05:00:37;;;;;;;14.40;10.40;;;;;;;;;;107877;1248;22550;-79
2023/05/11 05:03:04;;;;;;;20.00;10.10;;;;;;;;;;107928;1250;22511;-79
2023/05/11 05:05:30;;;;;;;19.10;10.70;;;;;;;;;;108182;1248;23259;-79
2023/05/11 05:07:56;;;;;;;19.90;11.20;;;;;;;;;;107811;1248;25285;-79
2023/05/11 05:10:23;;;;;;;19.00;10.90;;;;;;;;;;108044;1251;22532;-78
2023/05/11 05:12:49;;;;;;;23.00;10.90;;;;;;;;;;107703;1249;22542;-79
2023/05/11 05:15:15;;;;;;;19.20;11.00;;;;;;;;;;107415;1251;61222;-79
2023/05/11 05:17:42;;;;;;;15.90;10.10;;;;;;;;;;107430;1249;61194;-77
2023/05/11 05:20:08;;;;;;;19.90;10.10;;;;;;;;;;107595;1250;60873;-79
2023/05/11 05:22:34;;;;;;;18.40;11.00;;;;;;;;;;107495;1253;61206;-77
2023/05/11 05:25:01;;;;;;;15.80;9.80;;;;;;;;;;107907;1248;56257;-79
2023/05/11 05:27:27;;;;;;;17.30;9.90;;;;;;;;;;107826;1250;23177;-80
2023/05/11 05:29:53;;;;;;;13.80;7.70;;;;;;;;;;107775;1250;22548;-79
2023/05/11 05:32:20;;;;;;;13.80;8.20;;;;;;;;;;107776;1247;23275;-79
2023/05/11 05:34:46;;;;;;;17.40;9.70;;;;;;;;;;108020;1248;22521;-79
2023/05/11 05:37:12;;;;;;;19.10;10.20;;;;;;;;;;107959;1248;46866;-77
2023/05/11 05:39:39;;;;;;;17.30;9.50;;;;;;;;;;107830;1250;44299;-79
2023/05/11 05:42:05;;;;;;;18.10;9.40;;;;;;;;;;108263;1250;23327;-76
2023/05/11 05:44:32;;;;;;;18.80;8.90;;;;;;;;;;107896;1248;22537;-78
2023/05/11 05:46:58;;;;;;;15.10;8.70;;;;;;;;;;108086;1248;22948;-77
2023/05/11 05:49:24;;;;;;;14.80;10.60;;;;;;;;;;107994;1248;22560;-78
2023/05/11 05:51:51;;;;;;;13.00;8.90;;;;;;;;;;107853;1250;22532;-79
2023/05/11 05:54:17;;;;;;;17.70;10.70;;;;;;;;;;108086;1250;22559;-78
2023/05/11 05:56:43;;;;;;;17.40;8.80;;;;;;;;;;107912;1251;23778;-76
2023/05/11 05:59:12;;;;;;;17.30;10.40;;;;;;;;;;108262;1250;22522;-77
2023/05/11 06:01:44;;;;;;;14.10;8.30;;;;;;;;;;108128;1250;23304;-78
2023/05/11 06:04:11;;;;;;;13.70;9.40;;;;;;;;;;108340;1250;22508;-78
2023/05/11 06:06:37;;;;;;;14.20;8.70;;;;;;;;;;108153;1251;22547;-78
2023/05/11 06:09:03;;;;;;;12.40;8.40;;;;;;;;;;107929;1251;22540;-78
2023/05/11 06:11:30;;;;;;;12.60;7.60;;;;;;;;;;107887;1248;24173;-78
2023/05/11 06:13:56;;;;;;;12.80;8.90;;;;;;;;;;107639;1250;23804;-76
2023/05/11 06:16:24;;;;;;;12.80;8.30;;;;;;;;;;107888;1247;22649;-79
2023/05/11 06:18:50;;;;;;;13.80;8.00;;;;;;;;;;107507;1250;61155;-76
2023/05/11 06:21:16;;;;;;;16.30;7.90;;;;;;;;;;107859;1251;23133;-77
2023/05/11 06:23:43;;;;;;;9.50;6.70;;;;;;;;;;107915;1251;25326;-78
2023/05/11 06:26:10;;;;;;;10.80;6.60;;;;;;;;;;107504;1251;59814;-76
2023/05/11 06:28:37;;;;;;;11.90;7.40;;;;;;;;;;107600;1251;61114;-77
2023/05/11 06:31:03;;;;;;;12.80;5.90;;;;;;;;;;107461;1252;59194;-78
2023/05/11 06:33:29;;;;;;;17.30;7.50;;;;;;;;;;107720;1249;58966;-79
2023/05/11 06:35:56;;;;;;;12.80;5.50;;;;;;;;;;107722;1250;24176;-78
2023/05/11 06:38:22;;;;;;;9.50;6.70;;;;;;;;;;107797;1250;58734;-77
2023/05/11 06:40:52;;;;;;;9.80;6.80;;;;;;;;;;107771;1250;58979;-79
2023/05/11 06:43:18;;;;;;;9.10;6.20;;;;;;;;;;107973;1250;55521;-76
2023/05/11 06:45:44;;;;;;;11.20;6.50;;;;;;;;;;108086;1247;59178;-77
2023/05/11 06:48:11;;;;;;;12.70;7.20;;;;;;;;;;107792;1250;61132;-79
2023/05/11 06:50:37;;;;;;;14.00;5.70;;;;;;;;;;107844;1248;25366;-78
2023/05/11 06:53:03;;;;;;;7.80;5.80;;;;;;;;;;107937;1248;22838;-80
2023/05/11 06:55:30;;;;;;;6.30;4.50;;;;;;;;;;107943;1253;27602;-79
2023/05/11 06:57:56;;;;;;;11.60;5.80;;;;;;;;;;107538;1250;58917;-79
2023/05/11 07:00:22;;;;;;;8.60;4.90;;;;;;;;;;107726;1250;22525;-79
2023/05/11 07:02:49;;;;;;;14.10;5.90;;;;;;;;;;107723;1250;24277;-79
2023/05/11 07:05:15;;;;;;;6.20;5.00;;;;;;;;;;107818;1253;24217;-77
2023/05/11 07:07:41;;;;;;;7.30;4.80;;;;;;;;;;107817;1247;25538;-79
2023/05/11 07:10:08;;;;;;;9.80;5.00;;;;;;;;;;107823;1248;57003;-77
2023/05/11 07:12:34;;;;;;;8.60;4.30;;;;;;;;;;107785;1252;22538;-79
2023/05/11 07:15:01;;;;;;;8.60;4.80;;;;;;;;;;107727;1248;25387;-79
2023/05/11 07:17:27;;;;;;;5.20;4.00;;;;;;;;;;107796;1253;22512;-77
2023/05/11 07:19:54;;;;;;;6.60;3.90;;;;;;;;;;107794;1249;25373;-77
2023/05/11 07:22:20;;;;;;;5.70;3.90;;;;;;;;;;107577;1250;59185;-77
2023/05/11 07:24:46;;;;;;;4.40;3.50;;;;;;;;;;107716;1252;22518;-77
2023/05/11 07:27:13;;;;;;;5.20;4.10;;;;;;;;;;107727;1250;24373;-80
2023/05/11 07:29:40;;;;;;;7.70;4.30;;;;;;;;;;107779;1250;25350;-80
2023/05/11 07:32:06;;;;;;;5.10;4.00;;;;;;;;;;107820;1250;22539;-80
2023/05/11 07:34:33;;;;;;;6.50;3.50;;;;;;;;;;107797;1251;24259;-78
2023/05/11 07:36:59;;;;;;;6.70;3.70;;;;;;;;;;107829;1251;24203;-77
2023/05/11 07:39:25;;;;;;;10.00;4.00;;;;;;;;;;107971;1250;25320;-77
2023/05/11 07:41:52;;;;;;;6.40;4.10;;;;;;;;;;108110;1250;22560;-81
2023/05/11 07:44:18;;;;;;;4.60;2.70;;;;;;;;;;107934;1250;23250;-80
2023/05/11 07:46:44;;;;;;;5.70;3.20;;;;;;;;;;108064;1248;22523;-78
2023/05/11 07:49:11;;;;;;;4.00;2.70;;;;;;;;;;107897;1250;23550;-77
2023/05/11 07:51:37;;;;;;;3.80;2.60;;;;;;;;;;108010;1251;24337;-76
2023/05/11 07:54:04;;;;;;;5.80;3.10;;;;;;;;;;107945;1250;22563;-75
2023/05/11 07:56:30;;;;;;;4.70;3.30;;;;;;;;;;107778;1250;25386;-80
2023/05/11 07:58:57;;;;;;;5.20;3.10;;;;;;;;;;107931;1250;22541;-80
2023/05/11 08:01:23;;;;;;;6.20;2.80;;;;;;;;;;107996;1251;22564;-77
2023/05/11 08:03:50;;;;;;;2.70;2.20;;;;;;;;;;107991;1250;26465;-77
2023/05/11 08:06:16;;;;;;;4.80;2.30;;;;;;;;;;107765;1250;61135;-77
2023/05/11 08:08:42;;;;;;;4.90;2.80;;;;;;;;;;107714;1250;61281;-78
2023/05/11 08:11:09;;;;;;;7.20;2.70;;;;;;;;;;107904;1253;24313;-78
2023/05/11 08:13:35;;;;;;;3.30;2.50;;;;;;;;;;107885;1251;23003;-80
2023/05/11 08:16:02;;;;;;;3.70;2.80;;;;;;;;;;107953;1250;22514;-80
2023/05/11 08:18:28;;;;;;;5.30;2.80;;;;;;;;;;107739;1253;22518;-80
2023/05/11 08:20:54;;;;;;;2.50;1.90;;;;;;;;;;107686;1251;56410;-78
2023/05/11 08:23:21;;;;;;;6.40;2.20;;;;;;;;;;107579;1250;55861;-78
2023/05/11 08:25:48;;;;;;;4.30;1.90;;;;;;;;;;107729;1251;23280;-78
2023/05/11 08:28:14;;;;;;;3.50;2.30;;;;;;;;;;107768;1248;22569;-78
2023/05/11 08:30:41;;;;;;;5.30;2.00;;;;;;;;;;107362;1248;60189;-78
2023/05/11 08:33:08;;;;;;;2.20;1.90;;;;;;;;;;106990;1253;61265;-78
2023/05/11 08:35:35;;;;;;;3.60;2.10;;;;;;;;;;106819;1253;61215;-78
2023/05/11 08:38:01;;;;;;;12.60;2.40;;;;;;;;;;106900;1252;61105;-78
2023/05/11 08:40:27;;;;;;;3.80;2.50;;;;;;;;;;106937;1252;61221;-78
2023/05/11 08:42:54;;;;;;;3.30;2.00;;;;;;;;;;106838;1249;61397;-78
2023/05/11 08:45:21;;;;;;;5.00;1.60;;;;;;;;;;106912;1249;61266;-81
2023/05/11 08:47:48;;;;;;;9.80;1.70;;;;;;;;;;106877;1247;59299;-81
2023/05/11 08:50:14;;;;;;;3.30;1.80;;;;;;;;;;106990;1252;61333;-78
2023/05/11 08:52:40;;;;;;;6.90;3.00;;;;;;;;;;106960;1251;60810;-81
2023/05/11 08:55:07;;;;;;;3.00;2.00;;;;;;;;;;106877;1250;61352;-81
2023/05/11 08:57:34;;;;;;;8.30;2.20;;;;;;;;;;106848;1251;61250;-78
2023/05/11 09:00:01;;;;;;;3.10;2.10;;;;;;;;;;106983;1250;61425;-78
2023/05/11 09:02:27;;;;;;;5.90;2.00;;;;;;;;;;106835;1254;61323;-81
2023/05/11 09:04:53;;;;;;;2.90;1.60;;;;;;;;;;106824;1250;61228;-78
2023/05/11 09:07:20;;;;;;;8.40;1.70;;;;;;;;;;106897;1247;61233;-81
2023/05/11 09:09:47;;;;;;;4.50;1.90;;;;;;;;;;106886;1250;61352;-81
2023/05/11 09:12:13;;;;;;;4.20;1.60;;;;;;;;;;107148;1251;61323;-78
2023/05/11 09:14:40;;;;;;;3.40;1.90;;;;;;;;;;107131;1251;61186;-81
2023/05/11 09:17:06;;;;;;;2.70;1.80;;;;;;;;;;107027;1248;61215;-79
2023/05/11 09:19:32;;;;;;;2.40;1.60;;;;;;;;;;107183;1250;61246;-79
2023/05/11 09:21:59;;;;;;;3.40;1.70;;;;;;;;;;107150;1253;61339;-79
2023/05/11 09:24:26;;;;;;;3.70;2.10;;;;;;;;;;107207;1248;61100;-80
2023/05/11 09:27:05;;;;;;;4.20;1.60;;;;;;;;;;107335;1251;61224;-79
2023/05/11 09:29:32;;;;;;;2.10;1.30;;;;;;;;;;109163;1250;61064;-79
2023/05/11 09:31:58;;;;;;;2.70;1.50;;;;;;;;;;110025;1250;58937;-79
2023/05/11 09:34:25;;;;;;;2.90;1.80;;;;;;;;;;109855;1249;59223;-79
2023/05/11 09:36:52;;;;;;;2.30;1.50;;;;;;;;;;109905;1248;58882;-79
2023/05/11 09:39:29;;;;;;;4.60;2.20;;;;;;;;;;109978;1248;59331;-79
2023/05/11 09:42:12;;;;;;;2.50;1.60;;;;;;;;;;110008;1248;59831;-81
2023/05/11 09:44:40;;;;;;;2.40;1.40;;;;;;;;;;109144;1250;61267;-79
2023/05/11 09:47:06;;;;;;;;;;;;;;;;;;108768;1250;61247;-79
2023/05/11 09:49:33;;;;;;;4.20;1.60;;;;;;;;;;108809;1250;59186;-81
2023/05/11 09:52:00;;;;;;;2.60;2.00;;;;;;;;;;107540;1251;61155;-79
2023/05/11 09:54:27;;;;;;;5.20;1.60;;;;;;;;;;107426;1248;61107;-82
2023/05/11 09:56:55;;;;;;;5.60;1.20;;;;;;;;;;107412;1253;61207;-81
2023/05/11 09:59:21;;;;;;;;;;;;;;;;;;107711;1252;61331;-79
2023/05/11 10:01:48;;;;;;;2.90;1.50;;;;;;;;;;107797;1251;61224;-79
2023/05/11 10:04:14;;;;;;;2.40;1.50;;;;;;;;;;107862;1253;59211;-81
2023/05/11 10:06:45;;;;;;;2.80;1.50;;;;;;;;;;107733;1255;61147;-81
2023/05/11 10:09:11;;;;;;;5.20;1.80;;;;;;;;;;107978;1247;61330;-80
2023/05/11 10:11:38;;;;;;;3.30;1.70;;;;;;;;;;108578;1248;61238;-79
2023/05/11 10:14:04;;;;;;;2.90;1.30;;;;;;;;;;108618;1254;59675;-79
2023/05/11 10:16:30;;;;;;;2.50;1.10;;;;;;;;;;107369;1250;61139;-81
2023/05/11 10:18:57;;;;;;;4.20;2.40;;;;;;;;;;107670;1250;61253;-79
2023/05/11 10:21:23;;;;;;;4.50;1.40;;;;;;;;;;107813;1249;61176;-82
2023/05/11 10:23:49;;;;;;;2.40;1.10;;;;;;;;;;107985;1254;61195;-79
2023/05/11 10:26:16;;;;;;;5.00;1.40;;;;;;;;;;108031;1250;61262;-81
2023/05/11 10:28:42;;;;;;;2.80;1.30;;;;;;;;;;107778;1250;59532;-82
2023/05/11 10:31:08;;;;;;;4.00;2.00;;;;;;;;;;107880;1251;61335;-82
2023/05/11 10:33:35;;;;;;;9.20;1.50;;;;;;;;;;107621;1253;61336;-82
2023/05/11 10:36:01;;;;;;;6.70;1.60;;;;;;;;;;107739;1251;61343;-79
2023/05/11 10:38:28;;;;;;;1.90;1.20;;;;;;;;;;107666;1249;59244;-79
2023/05/11 10:40:54;;;;;;;4.60;1.90;;;;;;;;;;107884;1251;61238;-79
2023/05/11 10:43:29;;;;;;;1.70;1.40;;;;;;;;;;107523;1255;61288;-80
2023/05/11 10:45:59;;;;;;;1.90;1.20;;;;;;;;;;107764;1251;61340;-80
2023/05/11 10:48:35;;;;;;;43.00;30.90;;;;;;;;;;107673;1251;61138;-81
2023/05/11 10:51:20;;;;;;;10.80;9.40;;;;;;;;;;107616;1251;61269;-79
2023/05/11 10:53:56;;;;;;;13.00;2.40;;;;;;;;;;107717;1250;61311;-79
2023/05/11 10:56:41;;;;;;;1.50;1.10;;;;;;;;;;107837;1250;61230;-81
2023/05/11 10:59:21;;;;;;;4.40;1.90;;;;;;;;;;107863;1247;59560;-81
2023/05/11 11:01:49;;;;;;;3.40;1.80;;;;;;;;;;107838;1248;61349;-81
2023/05/11 11:04:16;;;;;;;;;;;;;;;;;;107808;1253;61110;-79
2023/05/11 11:06:42;;;;;;;6.90;2.30;;;;;;;;;;107997;1249;61376;-79
2023/05/11 11:09:12;;;;;;;2.90;1.10;;;;;;;;;;107884;1248;59848;-81
2023/05/11 11:11:44;;;;;;;2.90;1.90;;;;;;;;;;107879;1252;61126;-79
2023/05/11 11:14:11;;;;;;;4.90;1.70;;;;;;;;;;108071;1250;59773;-80
2023/05/11 11:16:38;;;;;;;6.50;1.70;;;;;;;;;;109879;1250;59324;-79
2023/05/11 11:19:24;;;;;;;3.10;1.30;;;;;;;;;;108699;1252;61235;-79
2023/05/11 11:21:50;;;;;;;2.30;1.30;;;;;;;;;;107415;1249;61305;-82
2023/05/11 11:24:35;;;;;;;3.20;1.30;;;;;;;;;;107477;1250;61158;-79
2023/05/11 11:27:02;;;;;;;2.10;1.30;;;;;;;;;;107538;1250;61338;-79
2023/05/11 11:29:28;;;;;;;2.20;1.50;;;;;;;;;;107453;1249;61352;-81
2023/05/11 11:31:55;;;;;;;4.20;2.00;;;;;;;;;;107470;1249;61304;-79
2023/05/11 11:34:27;;;;;;;2.60;1.30;;;;;;;;;;107634;1253;61361;-79
2023/05/11 11:36:53;;;;;;;8.20;1.60;;;;;;;;;;107490;1250;61237;-79
2023/05/11 11:39:38;;;;;;;3.50;1.90;;;;;;;;;;107449;1248;61266;-79
2023/05/11 11:42:06;;;;;;;2.30;1.30;;;;;;;;;;107417;1250;61403;-81
2023/05/11 11:44:32;;;;;;;2.20;1.30;;;;;;;;;;107628;1250;61234;-78
2023/05/11 11:47:28;;;;;;;3.00;1.70;;;;;;;;;;106791;1249;61296;-80
2023/05/11 11:49:55;;;;;;;2.60;1.20;;;;;;;;;;106762;1253;61241;-78
2023/05/11 11:52:30;;;;;;;2.60;1.80;;;;;;;;;;106906;1253;61230;-80
2023/05/11 11:55:01;;;;;;;2.00;1.50;;;;;;;;;;106780;1250;61222;-78
2023/05/11 11:57:33;;;;;;;3.30;1.60;;;;;;;;;;106909;1250;60848;-78
2023/05/11 12:00:00;;;;;;;3.60;1.40;;;;;;;;;;106917;1253;61314;-78
2023/05/11 12:02:26;;;;;;;2.70;1.30;;;;;;;;;;107080;1253;62017;-80
2023/05/11 12:05:01;;;;;;;4.60;1.60;;;;;;;;;;107134;1254;61362;-78
2023/05/11 12:07:30;;;;;;;3.10;1.40;;;;;;;;;;107083;1256;61257;-78
2023/05/11 12:09:56;;;;;;;4.90;1.70;;;;;;;;;;109614;1249;59065;-80
2023/05/11 12:12:22;;;;;;;3.80;1.70;;;;;;;;;;106921;1250;62405;-80
2023/05/11 12:14:49;;;;;;;8.20;2.00;;;;;;;;;;106921;1253;61348;-80
2023/05/11 12:17:22;;;;;;;4.50;1.50;;;;;;;;;;106920;1253;61342;-81
2023/05/11 12:19:48;;;;;;;5.50;1.90;;;;;;;;;;106782;1256;61318;-78
2023/05/11 12:22:20;;;;;;;5.60;1.60;;;;;;;;;;106810;1253;61234;-78
2023/05/11 12:24:46;;;;;;;2.40;1.70;;;;;;;;;;106778;1254;61138;-78
2023/05/11 12:27:15;;;;;;;2.70;1.50;;;;;;;;;;107017;1261;61215;-78
2023/05/11 12:29:44;;;;;;;2.10;1.40;;;;;;;;;;106765;1257;61260;-79
2023/05/11 12:32:11;;;;;;;2.50;1.40;;;;;;;;;;106797;1251;61222;-80
2023/05/11 12:34:38;;;;;;;1.30;1.10;;;;;;;;;;106915;1254;62025;-81
2023/05/11 12:37:04;;;;;;;5.00;1.50;;;;;;;;;;106854;1253;61313;-78
2023/05/11 12:39:31;;;;;;;3.90;1.40;;;;;;;;;;106898;1251;61355;-81
2023/05/11 12:41:57;;;;;;;2.20;1.50;;;;;;;;;;107004;1252;61296;-79
2023/05/11 12:44:24;;;;;;;2.80;1.50;;;;;;;;;;106913;1253;61285;-78
2023/05/11 12:46:51;;;;;;;4.00;1.30;;;;;;;;;;106906;1256;61124;-81
2023/05/11 12:49:18;;;;;;;2.10;1.20;;;;;;;;;;106833;1255;61203;-82
2023/05/11 12:51:51;;;;;;;1.90;1.00;;;;;;;;;;106993;1252;61234;-81
2023/05/11 12:54:31;;;;;;;2.10;1.00;;;;;;;;;;106972;1253;61246;-79
2023/05/11 12:56:58;;;;;;;2.30;1.10;;;;;;;;;;106882;1256;61355;-79
2023/05/11 12:59:31;;;;;;;2.10;1.30;;;;;;;;;;106990;1252;61323;-79
2023/05/11 13:02:17;;;;;;;2.10;0.90;;;;;;;;;;107011;1251;62223;-79
2023/05/11 13:04:44;;;;;;;7.50;1.90;;;;;;;;;;107631;1253;61885;-79
2023/05/11 13:07:11;;;;;;;4.30;1.30;;;;;;;;;;107033;1247;61237;-81
2023/05/11 13:09:37;;;;;;;3.60;1.10;;;;;;;;;;107947;1251;61208;-80
2023/05/11 13:12:11;;;;;;;3.00;1.20;;;;;;;;;;108240;1251;61152;-81
2023/05/11 13:14:38;;;;;;;2.20;1.30;;;;;;;;;;107555;1248;63556;-81
2023/05/11 13:17:04;;;;;;;3.00;1.10;;;;;;;;;;107606;1255;61128;-78
2023/05/11 13:19:32;;;;;;;3.00;1.40;;;;;;;;;;107880;1253;63667;-79
2023/05/11 13:21:58;;;;;;;;;;;;;;;;;;107689;1251;61368;-79
2023/05/11 13:24:25;;;;;;;3.60;1.20;;;;;;;;;;107883;1253;59517;-82
2023/05/11 13:26:52;;;;;;;3.20;1.70;;;;;;;;;;107847;1248;61113;-82
2023/05/11 13:29:18;;;;;;;1.90;1.00;;;;;;;;;;107576;1253;61152;-79
2023/05/11 13:31:45;;;;;;;2.20;1.50;;;;;;;;;;107618;1248;61454;-82
2023/05/11 13:34:11;;;;;;;2.40;1.60;;;;;;;;;;107738;1251;61228;-81
2023/05/11 13:36:38;;;;;;;3.20;1.50;;;;;;;;;;107621;1248;61148;-81
2023/05/11 13:39:05;;;;;;;1.80;1.10;;;;;;;;;;107485;1251;61116;-79
2023/05/11 13:41:31;;;;;;;1.50;0.90;;;;;;;;;;107673;1251;61217;-79
2023/05/11 13:43:57;;;;;;;3.10;1.60;;;;;;;;;;107595;1255;61253;-81
2023/05/11 13:46:24;;;;;;;1.20;0.80;;;;;;;;;;107389;1253;61139;-79
2023/05/11 13:48:50;;;;;;;2.10;1.30;;;;;;;;;;107523;1251;61349;-82
2023/05/11 13:51:16;;;;;;;2.00;1.20;;;;;;;;;;107445;1253;61311;-80
2023/05/11 13:53:43;;;;;;;2.70;1.40;;;;;;;;;;107568;1252;61342;-80
2023/05/11 13:56:10;;;;;;;5.00;1.40;;;;;;;;;;107322;1256;59341;-79
2023/05/11 13:58:36;;;;;;;2.80;1.60;;;;;;;;;;107348;1251;196540;-79
2023/05/11 14:01:03;;;;;;;6.50;1.30;;;;;;;;;;107525;1251;61263;-79
2023/05/11 14:03:30;;;;;;;1.60;1.30;;;;;;;;;;107457;1251;61299;-80
2023/05/11 14:05:57;;;;;;;1.90;1.30;;;;;;;;;;107488;1254;61266;-79
2023/05/11 14:08:23;;;;;;;2.50;1.20;;;;;;;;;;107756;1251;59211;-81
2023/05/11 14:10:50;;;;;;;2.60;1.50;;;;;;;;;;107370;1253;61272;-79
2023/05/11 14:13:16;;;;;;;2.90;1.80;;;;;;;;;;107713;1248;61237;-80
2023/05/11 14:15:42;;;;;;;11.30;2.60;;;;;;;;;;107678;1253;59627;-80
2023/05/11 14:18:09;;;;;;;3.60;2.30;;;;;;;;;;107706;1249;61316;-81
2023/05/11 14:20:41;;;;;;;3.70;1.80;;;;;;;;;;107730;1253;61244;-79
2023/05/11 14:23:07;;;;;;;5.30;1.70;;;;;;;;;;107622;1251;61230;-79